sensor_id;sensor_type;location;lat;lon;timestamp;temperature;humidity
20315;DHT22;10315;50.958;13.080;2023-07-13T00:00:01;19.10;99.90
20315;DHT22;10315;50.958;13.080;2023-07-13T00:10:08;19.20;99.90
20315;DHT22;10315;50.958;13.080;2023-07-13T00:20:10;18.90;99.90
20315;DHT22;10315;50.958;13.080;2023-07-13T00:30:15;18.90;99.90
20315;DHT22;10315;50.958;13.080;2023-07-13T00:40:18;18.40;99.90
20315;DHT22;10315;50.958;13.080;2023-07-13T00:50:22;18.10;99.90
20315;DHT22;10315;50.958;13.080;2023-07-13T01:00:25;18.00;99.90
20315;DHT22;10315;50.958;13.080;2023-07-13T01:10:29;18.00;99.90
20315;DHT22;10315;50.958;13.080;2023-07-13T01:20:39;18.00;99.90
20315;DHT22;10315;50.958;13.080;2023-07-13T01:30:44;17.70;99.90
20315;DHT22;10315;50.958;13.080;2023-07-13T01:40:46;17.20;99.90
20315;DHT22;10315;50.958;13.080;2023-07-13T01:50:49;17.00;99.90
20315;DHT22;10315;50.958;13.080;2023-07-13T02:00:51;16.90;99.90
20315;DHT22;10315;50.958;13.080;2023-07-13T02:10:54;17.10;99.90
20315;DHT22;10315;50.958;13.080;2023-07-13T02:20:56;17.00;99.90
20315;DHT22;10315;50.958;13.080;2023-07-13T02:31:06;16.70;99.90
20315;DHT22;10315;50.958;13.080;2023-07-13T02:41:09;16.70;99.90
20315;DHT22;10315;50.958;13.080;2023-07-13T02:51:12;16.30;99.90
20315;DHT22;10315;50.958;13.080;2023-07-13T03:01:13;15.90;99.90
20315;DHT22;10315;50.958;13.080;2023-07-13T03:11:20;15.60;99.90
20315;DHT22;10315;50.958;13.080;2023-07-13T03:21:22;15.50;99.90
20315;DHT22;10315;50.958;13.080;2023-07-13T03:31:27;15.50;99.90
20315;DHT22;10315;50.958;13.080;2023-07-13T03:41:30;15.50;99.90
20315;DHT22;10315;50.958;13.080;2023-07-13T03:51:36;15.60;99.90
20315;DHT22;10315;50.958;13.080;2023-07-13T04:01:46;16.00;99.90
20315;DHT22;10315;50.958;13.080;2023-07-13T04:11:49;16.20;99.90
20315;DHT22;10315;50.958;13.080;2023-07-13T04:21:51;16.50;99.90
20315;DHT22;10315;50.958;13.080;2023-07-13T04:31:54;16.70;99.90
20315;DHT22;10315;50.958;13.080;2023-07-13T04:41:56;16.70;99.90
20315;DHT22;10315;50.958;13.080;2023-07-13T04:51:58;16.80;99.90
20315;DHT22;10315;50.958;13.080;2023-07-13T05:02:00;17.00;99.90
20315;DHT22;10315;50.958;13.080;2023-07-13T05:12:05;17.50;99.90
20315;DHT22;10315;50.958;13.080;2023-07-13T05:22:07;17.70;99.90
20315;DHT22;10315;50.958;13.080;2023-07-13T05:32:10;17.60;99.90
20315;DHT22;10315;50.958;13.080;2023-07-13T05:42:12;18.40;99.90
20315;DHT22;10315;50.958;13.080;2023-07-13T05:52:14;18.50;99.90
20315;DHT22;10315;50.958;13.080;2023-07-13T06:02:16;19.00;99.90
20315;DHT22;10315;50.958;13.080;2023-07-13T06:12:19;19.30;99.90
20315;DHT22;10315;50.958;13.080;2023-07-13T06:22:21;20.00;99.90
20315;DHT22;10315;50.958;13.080;2023-07-13T06:32:24;21.90;99.90
20315;DHT22;10315;50.958;13.080;2023-07-13T06:42:26;22.00;99.90
20315;DHT22;10315;50.958;13.080;2023-07-13T06:52:29;21.90;99.90
20315;DHT22;10315;50.958;13.080;2023-07-13T07:02:30;22.20;99.90
20315;DHT22;10315;50.958;13.080;2023-07-13T07:12:33;22.10;99.90
20315;DHT22;10315;50.958;13.080;2023-07-13T07:22:35;22.90;99.90
20315;DHT22;10315;50.958;13.080;2023-07-13T07:32:38;26.90;99.90
20315;DHT22;10315;50.958;13.080;2023-07-13T07:42:39;29.70;93.10
20315;DHT22;10315;50.958;13.080;2023-07-13T07:52:43;30.60;90.00
20315;DHT22;10315;50.958;13.080;2023-07-13T08:02:45;31.90;80.90
20315;DHT22;10315;50.958;13.080;2023-07-13T08:12:48;34.70;69.10
20315;DHT22;10315;50.958;13.080;2023-07-13T08:22:49;35.90;65.50
20315;DHT22;10315;50.958;13.080;2023-07-13T08:32:53;39.00;56.30
20315;DHT22;10315;50.958;13.080;2023-07-13T08:42:57;42.10;49.10
20315;DHT22;10315;50.958;13.080;2023-07-13T08:53:02;38.90;51.70
20315;DHT22;10315;50.958;13.080;2023-07-13T09:03:06;41.40;47.20
20315;DHT22;10315;50.958;13.080;2023-07-13T09:13:24;42.70;45.00
20315;DHT22;10315;50.958;13.080;2023-07-13T09:23:30;40.40;46.90
20315;DHT22;10315;50.958;13.080;2023-07-13T09:33:33;37.90;48.10
20315;DHT22;10315;50.958;13.080;2023-07-13T09:43:35;37.50;49.60
20315;DHT22;10315;50.958;13.080;2023-07-13T09:53:45;32.00;56.30
20315;DHT22;10315;50.958;13.080;2023-07-13T10:03:53;32.40;56.40
20315;DHT22;10315;50.958;13.080;2023-07-13T10:13:58;30.90;59.00
20315;DHT22;10315;50.958;13.080;2023-07-13T10:24:04;30.30;59.50
20315;DHT22;10315;50.958;13.080;2023-07-13T10:34:11;31.70;56.70
20315;DHT22;10315;50.958;13.080;2023-07-13T10:44:18;32.40;56.40
20315;DHT22;10315;50.958;13.080;2023-07-13T10:54:27;31.60;54.60
20315;DHT22;10315;50.958;13.080;2023-07-13T11:04:40;32.50;56.80
20315;DHT22;10315;50.958;13.080;2023-07-13T11:15:05;32.00;54.90
20315;DHT22;10315;50.958;13.080;2023-07-13T11:25:25;30.30;56.80
20315;DHT22;10315;50.958;13.080;2023-07-13T11:35:31;29.40;59.30
20315;DHT22;10315;50.958;13.080;2023-07-13T11:45:35;29.00;60.30
20315;DHT22;10315;50.958;13.080;2023-07-13T11:55:38;29.60;58.50
20315;DHT22;10315;50.958;13.080;2023-07-13T12:05:55;28.70;60.10
20315;DHT22;10315;50.958;13.080;2023-07-13T12:15:59;29.40;58.80
20315;DHT22;10315;50.958;13.080;2023-07-13T12:26:02;28.50;58.60
20315;DHT22;10315;50.958;13.080;2023-07-13T12:36:11;29.30;58.70
20315;DHT22;10315;50.958;13.080;2023-07-13T12:46:18;29.70;57.10
20315;DHT22;10315;50.958;13.080;2023-07-13T12:56:24;29.60;57.10
20315;DHT22;10315;50.958;13.080;2023-07-13T13:06:28;28.80;58.80
20315;DHT22;10315;50.958;13.080;2023-07-13T13:16:33;28.30;59.40
20315;DHT22;10315;50.958;13.080;2023-07-13T13:26:35;29.40;58.60
20315;DHT22;10315;50.958;13.080;2023-07-13T13:36:38;29.70;57.50
20315;DHT22;10315;50.958;13.080;2023-07-13T13:46:40;29.20;57.00
20315;DHT22;10315;50.958;13.080;2023-07-13T13:56:44;28.50;57.10
20315;DHT22;10315;50.958;13.080;2023-07-13T14:06:47;29.20;57.10
20315;DHT22;10315;50.958;13.080;2023-07-13T14:16:51;28.90;57.50
20315;DHT22;10315;50.958;13.080;2023-07-13T14:26:53;29.10;55.60
20315;DHT22;10315;50.958;13.080;2023-07-13T14:36:56;28.20;56.90
20315;DHT22;10315;50.958;13.080;2023-07-13T14:47:00;28.60;56.00
20315;DHT22;10315;50.958;13.080;2023-07-13T14:57:09;28.10;55.90
20315;DHT22;10315;50.958;13.080;2023-07-13T15:07:11;27.50;56.40
20315;DHT22;10315;50.958;13.080;2023-07-13T15:17:24;27.70;56.60
20315;DHT22;10315;50.958;13.080;2023-07-13T15:27:27;27.80;56.00
20315;DHT22;10315;50.958;13.080;2023-07-13T15:37:30;27.60;56.30
20315;DHT22;10315;50.958;13.080;2023-07-13T15:47:32;27.20;56.10
20315;DHT22;10315;50.958;13.080;2023-07-13T15:57:37;26.50;57.80
20315;DHT22;10315;50.958;13.080;2023-07-13T16:07:39;26.20;59.10
20315;DHT22;10315;50.958;13.080;2023-07-13T16:17:42;27.30;57.10
20315;DHT22;10315;50.958;13.080;2023-07-13T16:27:44;27.10;56.80
20315;DHT22;10315;50.958;13.080;2023-07-13T16:37:48;26.40;58.00
20315;DHT22;10315;50.958;13.080;2023-07-13T16:47:50;25.90;58.10
20315;DHT22;10315;50.958;13.080;2023-07-13T16:57:57;25.50;58.80
20315;DHT22;10315;50.958;13.080;2023-07-13T17:08:00;25.20;59.70
20315;DHT22;10315;50.958;13.080;2023-07-13T17:18:05;24.80;58.80
20315;DHT22;10315;50.958;13.080;2023-07-13T17:28:15;24.50;59.40
20315;DHT22;10315;50.958;13.080;2023-07-13T17:38:20;24.30;61.40
20315;DHT22;10315;50.958;13.080;2023-07-13T17:48:22;23.90;61.50
20315;DHT22;10315;50.958;13.080;2023-07-13T17:58:26;23.50;63.00
20315;DHT22;10315;50.958;13.080;2023-07-13T18:08:29;23.10;65.30
20315;DHT22;10315;50.958;13.080;2023-07-13T18:18:35;22.80;67.10
20315;DHT22;10315;50.958;13.080;2023-07-13T18:28:38;22.40;68.50
20315;DHT22;10315;50.958;13.080;2023-07-13T18:38:43;21.80;70.20
20315;DHT22;10315;50.958;13.080;2023-07-13T18:48:45;21.30;72.00
20315;DHT22;10315;50.958;13.080;2023-07-13T18:58:49;21.10;72.60
20315;DHT22;10315;50.958;13.080;2023-07-13T19:08:50;20.90;73.00
20315;DHT22;10315;50.958;13.080;2023-07-13T19:18:53;20.60;74.10
20315;DHT22;10315;50.958;13.080;2023-07-13T19:28:57;20.00;75.70
20315;DHT22;10315;50.958;13.080;2023-07-13T19:39:01;19.80;76.60
20315;DHT22;10315;50.958;13.080;2023-07-13T19:49:05;20.00;77.10
20315;DHT22;10315;50.958;13.080;2023-07-13T19:59:20;20.00;80.10
20315;DHT22;10315;50.958;13.080;2023-07-13T20:09:24;19.80;81.40
20315;DHT22;10315;50.958;13.080;2023-07-13T20:19:31;19.50;82.80
20315;DHT22;10315;50.958;13.080;2023-07-13T20:29:36;19.50;85.00
20315;DHT22;10315;50.958;13.080;2023-07-13T20:39:39;19.40;87.70
20315;DHT22;10315;50.958;13.080;2023-07-13T20:49:41;19.30;90.10
20315;DHT22;10315;50.958;13.080;2023-07-13T20:59:45;19.30;91.60
20315;DHT22;10315;50.958;13.080;2023-07-13T21:09:47;19.20;93.50
20315;DHT22;10315;50.958;13.080;2023-07-13T21:19:50;19.00;97.50
20315;DHT22;10315;50.958;13.080;2023-07-13T21:29:52;18.80;99.90
20315;DHT22;10315;50.958;13.080;2023-07-13T21:39:55;18.50;99.90
20315;DHT22;10315;50.958;13.080;2023-07-13T21:49:57;18.20;99.90
20315;DHT22;10315;50.958;13.080;2023-07-13T22:00:00;18.00;99.90
20315;DHT22;10315;50.958;13.080;2023-07-13T22:10:04;17.60;99.90
20315;DHT22;10315;50.958;13.080;2023-07-13T22:20:10;17.10;99.90
20315;DHT22;10315;50.958;13.080;2023-07-13T22:30:18;16.90;99.90
20315;DHT22;10315;50.958;13.080;2023-07-13T22:40:21;16.60;99.90
20315;DHT22;10315;50.958;13.080;2023-07-13T22:50:23;16.20;99.90
20315;DHT22;10315;50.958;13.080;2023-07-13T23:00:26;15.90;99.90
20315;DHT22;10315;50.958;13.080;2023-07-13T23:10:27;15.60;99.90
20315;DHT22;10315;50.958;13.080;2023-07-13T23:20:32;15.30;99.90
20315;DHT22;10315;50.958;13.080;2023-07-13T23:30:35;15.30;99.90
20315;DHT22;10315;50.958;13.080;2023-07-13T23:40:42;15.50;99.90
20315;DHT22;10315;50.958;13.080;2023-07-13T23:50:44;15.00;99.90
